Madrid, New Mexico
Current Conditions -  °F | °C
As of 12:53 AM on Sunday 26 Oct 2014 (Local Time) from KSAF Reporting Station
Clear Clear  
Wind Chill: 57°   Ceiling: Unl
Heat Index: 57°   Visibility: 10mi
Dew Point: 30°   Wind: 5mph
Humidity: 36%   Direction: 310°NW
Pressure: 30.21"   Gusts: NA
Location:  35.4436°N, 106.089°W
Report Text: KSAF 260653Z AUTO 31004KT 10SM CLR 14/M01 A3021 RMK AO2 SLP141 T01391011 402610056
Loading
Personal Weather Stations






























Interactive Weather Map
Tropical Storm Tracking
New forecast layout! Learn more

10-Day Weather Forecast

Advertisements
Track Severe Weather on mobile